sensor_id;sensor_type;location;lat;lon;timestamp;pressure;altitude;pressure_sealevel;temperature;humidity
64644;BME280;51056;50.330;7.914;2023-01-28T00:01:46;101656.00;;;3.21;88.04
64644;BME280;51056;50.330;7.914;2023-01-28T00:04:49;101656.88;;;3.20;88.24
64644;BME280;51056;50.330;7.914;2023-01-28T00:07:54;101645.72;;;3.10;87.67
64644;BME280;51056;50.330;7.914;2023-01-28T00:11:01;101650.03;;;3.07;87.79
64644;BME280;51056;50.330;7.914;2023-01-28T00:14:04;101650.88;;;3.12;87.82
64644;BME280;51056;50.330;7.914;2023-01-28T00:17:08;101651.72;;;3.15;87.35
64644;BME280;51056;50.330;7.914;2023-01-28T00:20:11;101656.84;;;3.21;87.13
64644;BME280;51056;50.330;7.914;2023-01-28T00:23:14;101649.97;;;3.16;87.37
64644;BME280;51056;50.330;7.914;2023-01-28T00:26:17;101645.69;;;3.19;87.37
64644;BME280;51056;50.330;7.914;2023-01-28T00:29:22;101648.28;;;3.15;87.46
64644;BME280;51056;50.330;7.914;2023-01-28T00:32:25;101650.00;;;3.11;87.21
64644;BME280;51056;50.330;7.914;2023-01-28T00:35:29;101650.03;;;3.10;86.89
64644;BME280;51056;50.330;7.914;2023-01-28T00:38:33;101648.28;;;3.15;87.55
64644;BME280;51056;50.330;7.914;2023-01-28T00:41:36;101643.09;;;3.18;87.14
64644;BME280;51056;50.330;7.914;2023-01-28T00:44:39;101642.22;;;3.20;86.81
64644;BME280;51056;50.330;7.914;2023-01-28T00:47:42;101644.81;;;3.19;86.97
64644;BME280;51056;50.330;7.914;2023-01-28T00:50:56;101648.25;;;3.18;86.62
64644;BME280;51056;50.330;7.914;2023-01-28T00:54:25;101641.38;;;3.18;86.96
64644;BME280;51056;50.330;7.914;2023-01-28T00:57:28;101651.72;;;3.14;87.71
64644;BME280;51056;50.330;7.914;2023-01-28T01:00:32;101646.56;;;3.14;87.27
64644;BME280;51056;50.330;7.914;2023-01-28T01:03:35;101650.00;;;3.11;87.04
64644;BME280;51056;50.330;7.914;2023-01-28T01:06:39;101643.09;;;3.15;87.55
64644;BME280;51056;50.330;7.914;2023-01-28T01:09:42;101644.00;;;3.11;86.37
64644;BME280;51056;50.330;7.914;2023-01-28T01:12:47;101644.00;;;3.03;87.11
64644;BME280;51056;50.330;7.914;2023-01-28T01:16:07;101644.00;;;3.06;86.42
64644;BME280;51056;50.330;7.914;2023-01-28T01:19:10;101642.28;;;3.02;85.83
64644;BME280;51056;50.330;7.914;2023-01-28T01:22:13;101643.16;;;2.99;86.35
64644;BME280;51056;50.330;7.914;2023-01-28T01:25:18;101644.88;;;2.96;86.30
64644;BME280;51056;50.330;7.914;2023-01-28T01:28:22;101637.13;;;3.00;86.83
64644;BME280;51056;50.330;7.914;2023-01-28T01:31:25;101644.91;;;2.94;86.76
64644;BME280;51056;50.330;7.914;2023-01-28T01:34:28;101640.56;;;2.96;86.12
64644;BME280;51056;50.330;7.914;2023-01-28T01:37:32;101641.44;;;2.98;86.73
64644;BME280;51056;50.330;7.914;2023-01-28T01:40:35;101645.72;;;2.99;85.99
64644;BME280;51056;50.330;7.914;2023-01-28T01:43:57;101647.47;;;3.03;85.74
64644;BME280;51056;50.330;7.914;2023-01-28T01:47:00;101650.06;;;2.97;86.25
64644;BME280;51056;50.330;7.914;2023-01-28T01:50:12;101645.72;;;3.06;86.56
64644;BME280;51056;50.330;7.914;2023-01-28T01:53:19;101643.13;;;3.02;87.00
64644;BME280;51056;50.330;7.914;2023-01-28T01:56:29;101644.03;;;2.95;87.16
64644;BME280;51056;50.330;7.914;2023-01-28T01:59:35;101652.66;;;2.94;87.02
64644;BME280;51056;50.330;7.914;2023-01-28T02:03:27;101656.06;;;2.99;86.85
64644;BME280;51056;50.330;7.914;2023-01-28T02:06:31;101642.31;;;2.93;86.31
64644;BME280;51056;50.330;7.914;2023-01-28T02:09:35;101638.91;;;2.85;85.50
64644;BME280;51056;50.330;7.914;2023-01-28T02:12:51;101648.34;;;2.95;85.18
64644;BME280;51056;50.330;7.914;2023-01-28T02:15:56;101648.31;;;2.96;84.17
64644;BME280;51056;50.330;7.914;2023-01-28T02:19:01;101645.75;;;3.04;84.99
64644;BME280;51056;50.330;7.914;2023-01-28T02:22:07;101648.31;;;3.06;84.67
64644;BME280;51056;50.330;7.914;2023-01-28T02:31:47;101652.66;;;2.97;85.97
64644;BME280;51056;50.330;7.914;2023-01-28T02:35:06;101654.34;;;3.01;85.83
64644;BME280;51056;50.330;7.914;2023-01-28T02:38:19;101658.69;;;2.98;85.62
64644;BME280;51056;50.330;7.914;2023-01-28T02:41:30;101657.84;;;2.88;86.18
64644;BME280;51056;50.330;7.914;2023-01-28T02:44:34;101658.72;;;2.87;85.91
64644;BME280;51056;50.330;7.914;2023-01-28T02:47:37;101659.56;;;2.91;86.09
64644;BME280;51056;50.330;7.914;2023-01-28T02:51:04;101669.88;;;2.92;85.86
64644;BME280;51056;50.330;7.914;2023-01-28T02:54:36;101671.59;;;2.95;86.06
64644;BME280;51056;50.330;7.914;2023-01-28T03:04:15;101682.78;;;2.98;85.59
64644;BME280;51056;50.330;7.914;2023-01-28T03:07:26;101689.66;;;2.99;85.89
64644;BME280;51056;50.330;7.914;2023-01-28T03:10:33;101687.97;;;2.95;86.11
64644;BME280;51056;50.330;7.914;2023-01-28T03:13:39;101700.00;;;2.93;84.89
64644;BME280;51056;50.330;7.914;2023-01-28T03:17:04;101690.53;;;3.00;82.97
64644;BME280;51056;50.330;7.914;2023-01-28T03:20:31;101708.59;;;3.03;80.98
64644;BME280;51056;50.330;7.914;2023-01-28T03:24:08;101705.16;;;3.02;80.19
64644;BME280;51056;50.330;7.914;2023-01-28T03:31:16;101701.72;;;3.03;79.67
64644;BME280;51056;50.330;7.914;2023-01-28T03:34:41;101710.34;;;2.93;78.49
64644;BME280;51056;50.330;7.914;2023-01-28T03:38:04;101706.91;;;2.97;79.44
64644;BME280;51056;50.330;7.914;2023-01-28T03:41:22;101709.47;;;2.99;80.39
64644;BME280;51056;50.330;7.914;2023-01-28T03:44:27;101709.50;;;2.97;81.41
64644;BME280;51056;50.330;7.914;2023-01-28T03:47:49;101717.25;;;2.94;80.75
64644;BME280;51056;50.330;7.914;2023-01-28T03:50:54;101706.91;;;2.97;80.30
64644;BME280;51056;50.330;7.914;2023-01-28T03:53:59;101713.78;;;2.98;79.86
64644;BME280;51056;50.330;7.914;2023-01-28T03:57:02;101725.00;;;2.94;80.82
64644;BME280;51056;50.330;7.914;2023-01-28T04:00:08;101715.56;;;2.81;77.99
64644;BME280;51056;50.330;7.914;2023-01-28T04:03:18;101729.28;;;2.89;78.52
64644;BME280;51056;50.330;7.914;2023-01-28T04:06:38;101721.56;;;2.91;77.46
64644;BME280;51056;50.330;7.914;2023-01-28T04:10:10;101727.59;;;2.94;77.03
64644;BME280;51056;50.330;7.914;2023-01-28T04:13:25;101727.56;;;3.00;76.02
64644;BME280;51056;50.330;7.914;2023-01-28T04:16:28;101720.69;;;3.01;76.60
64644;BME280;51056;50.330;7.914;2023-01-28T04:19:32;101727.56;;;3.00;77.24
64644;BME280;51056;50.330;7.914;2023-01-28T04:22:39;101724.13;;;3.00;76.76
64644;BME280;51056;50.330;7.914;2023-01-28T04:25:49;101716.38;;;3.01;77.85
64644;BME280;51056;50.330;7.914;2023-01-28T04:28:52;101720.66;;;2.99;78.74
64644;BME280;51056;50.330;7.914;2023-01-28T04:31:55;101723.25;;;2.98;79.19
64644;BME280;51056;50.330;7.914;2023-01-28T04:35:23;101727.59;;;2.94;79.69
64644;BME280;51056;50.330;7.914;2023-01-28T04:38:42;101718.97;;;2.86;80.17
64644;BME280;51056;50.330;7.914;2023-01-28T04:42:03;101725.88;;;2.78;80.13
64644;BME280;51056;50.330;7.914;2023-01-28T04:45:23;101726.72;;;2.74;80.52
64644;BME280;51056;50.330;7.914;2023-01-28T04:48:46;101725.88;;;2.78;80.89
64644;BME280;51056;50.330;7.914;2023-01-28T04:52:21;101731.03;;;2.70;82.08
64644;BME280;51056;50.330;7.914;2023-01-28T04:55:50;101737.06;;;2.69;82.35
64644;BME280;51056;50.330;7.914;2023-01-28T04:58:54;101737.06;;;2.74;81.72
64644;BME280;51056;50.330;7.914;2023-01-28T05:01:58;101734.47;;;2.68;82.75
64644;BME280;51056;50.330;7.914;2023-01-28T05:05:03;101739.63;;;2.68;82.50
64644;BME280;51056;50.330;7.914;2023-01-28T05:08:29;101739.63;;;2.68;82.42
64644;BME280;51056;50.330;7.914;2023-01-28T05:11:33;101733.63;;;2.61;81.89
64644;BME280;51056;50.330;7.914;2023-01-28T05:19:30;101734.47;;;2.71;82.45
64644;BME280;51056;50.330;7.914;2023-01-28T05:22:33;101737.94;;;2.61;83.06
64644;BME280;51056;50.330;7.914;2023-01-28T05:25:57;101741.38;;;2.66;82.73
64644;BME280;51056;50.330;7.914;2023-01-28T05:29:01;101736.19;;;2.67;82.09
64644;BME280;51056;50.330;7.914;2023-01-28T05:32:05;101741.38;;;2.69;82.97
64644;BME280;51056;50.330;7.914;2023-01-28T05:35:09;101749.97;;;2.68;83.13
64644;BME280;51056;50.330;7.914;2023-01-28T05:38:12;101755.16;;;2.63;83.26
64644;BME280;51056;50.330;7.914;2023-01-28T05:41:15;101763.75;;;2.65;83.39
64644;BME280;51056;50.330;7.914;2023-01-28T05:44:21;101765.50;;;2.62;83.74
64644;BME280;51056;50.330;7.914;2023-01-28T05:47:50;101761.19;;;2.65;83.95
64644;BME280;51056;50.330;7.914;2023-01-28T05:51:02;101767.19;;;2.64;83.77
64644;BME280;51056;50.330;7.914;2023-01-28T05:54:15;101774.06;;;2.61;84.10
64644;BME280;51056;50.330;7.914;2023-01-28T05:57:18;101771.50;;;2.53;83.97
64644;BME280;51056;50.330;7.914;2023-01-28T06:00:47;101783.53;;;2.46;83.13
64644;BME280;51056;50.330;7.914;2023-01-28T06:04:13;101782.69;;;2.47;83.03
64644;BME280;51056;50.330;7.914;2023-01-28T06:07:22;101774.09;;;2.53;83.20
64644;BME280;51056;50.330;7.914;2023-01-28T06:10:26;101777.53;;;2.53;83.58
64644;BME280;51056;50.330;7.914;2023-01-28T06:13:30;101780.97;;;2.46;83.27
64644;BME280;51056;50.330;7.914;2023-01-28T06:16:48;101784.41;;;2.44;83.40
64644;BME280;51056;50.330;7.914;2023-01-28T06:19:57;101783.53;;;2.51;83.78
64644;BME280;51056;50.330;7.914;2023-01-28T06:23:01;101783.56;;;2.52;83.77
64644;BME280;51056;50.330;7.914;2023-01-28T06:26:08;101780.97;;;2.59;83.90
64644;BME280;51056;50.330;7.914;2023-01-28T06:29:25;101793.88;;;2.59;83.64
64644;BME280;51056;50.330;7.914;2023-01-28T06:32:28;101794.72;;;2.51;83.58
64644;BME280;51056;50.330;7.914;2023-01-28T06:35:31;101791.31;;;2.52;83.72
64644;BME280;51056;50.330;7.914;2023-01-28T06:38:38;101794.72;;;2.50;83.73
64644;BME280;51056;50.330;7.914;2023-01-28T06:42:57;101808.50;;;2.46;83.88
64644;BME280;51056;50.330;7.914;2023-01-28T06:46:01;101811.06;;;2.52;83.96
64644;BME280;51056;50.330;7.914;2023-01-28T06:49:08;101816.25;;;2.55;84.19
64644;BME280;51056;50.330;7.914;2023-01-28T06:52:13;101818.81;;;2.52;82.90
64644;BME280;51056;50.330;7.914;2023-01-28T06:55:17;101810.22;;;2.48;83.45
64644;BME280;51056;50.330;7.914;2023-01-28T06:58:21;101809.34;;;2.43;83.78
64644;BME280;51056;50.330;7.914;2023-01-28T07:01:24;101816.22;;;2.44;83.72
64644;BME280;51056;50.330;7.914;2023-01-28T07:04:27;101824.81;;;2.42;84.14
64644;BME280;51056;50.330;7.914;2023-01-28T07:07:31;101827.44;;;2.43;83.68
64644;BME280;51056;50.330;7.914;2023-01-28T07:10:35;101828.28;;;2.48;83.35
64644;BME280;51056;50.330;7.914;2023-01-28T07:13:38;101834.31;;;2.44;83.81
64644;BME280;51056;50.330;7.914;2023-01-28T07:16:41;101835.16;;;2.48;83.89
64644;BME280;51056;50.330;7.914;2023-01-28T07:19:44;101842.91;;;2.43;84.28
64644;BME280;51056;50.330;7.914;2023-01-28T07:22:48;101841.19;;;2.45;84.04
64644;BME280;51056;50.330;7.914;2023-01-28T07:25:53;101836.03;;;2.48;83.91
64644;BME280;51056;50.330;7.914;2023-01-28T07:33:39;101836.00;;;2.27;84.35
64644;BME280;51056;50.330;7.914;2023-01-28T07:36:42;101845.47;;;2.37;84.03
64644;BME280;51056;50.330;7.914;2023-01-28T07:39:56;101850.59;;;2.32;83.99
64644;BME280;51056;50.330;7.914;2023-01-28T07:42:59;101841.13;;;2.21;84.54
64644;BME280;51056;50.330;7.914;2023-01-28T07:46:03;101848.84;;;2.16;83.04
64644;BME280;51056;50.330;7.914;2023-01-28T07:49:07;101840.25;;;2.26;81.22
64644;BME280;51056;50.330;7.914;2023-01-28T07:52:10;101843.78;;;2.47;82.30
64644;BME280;51056;50.330;7.914;2023-01-28T07:55:14;101838.63;;;2.64;80.11
64644;BME280;51056;50.330;7.914;2023-01-28T07:58:19;101850.69;;;2.65;78.01
64644;BME280;51056;50.330;7.914;2023-01-28T08:01:26;101843.84;;;2.74;76.09
64644;BME280;51056;50.330;7.914;2023-01-28T08:04:30;101841.25;;;2.73;78.15
64644;BME280;51056;50.330;7.914;2023-01-28T08:07:33;101849.88;;;2.81;78.60
64644;BME280;51056;50.330;7.914;2023-01-28T08:10:38;101848.13;;;2.77;75.52
64644;BME280;51056;50.330;7.914;2023-01-28T08:13:46;101842.09;;;2.93;74.66
64644;BME280;51056;50.330;7.914;2023-01-28T08:16:50;101841.25;;;2.87;74.75
64644;BME280;51056;50.330;7.914;2023-01-28T08:19:53;101838.69;;;2.94;74.91
64644;BME280;51056;50.330;7.914;2023-01-28T08:23:06;101847.28;;;3.02;74.82
64644;BME280;51056;50.330;7.914;2023-01-28T08:26:10;101852.44;;;2.92;74.96
64644;BME280;51056;50.330;7.914;2023-01-28T08:29:13;101849.00;;;3.02;72.96
64644;BME280;51056;50.330;7.914;2023-01-28T08:32:18;101856.75;;;2.94;73.55
64644;BME280;51056;50.330;7.914;2023-01-28T08:35:25;101861.91;;;2.96;72.06
64644;BME280;51056;50.330;7.914;2023-01-28T08:38:29;101870.53;;;3.01;71.73
64644;BME280;51056;50.330;7.914;2023-01-28T08:41:33;101863.63;;;3.06;70.76
64644;BME280;51056;50.330;7.914;2023-01-28T08:44:36;101866.22;;;3.09;69.97
64644;BME280;51056;50.330;7.914;2023-01-28T08:50:57;101873.97;;;2.95;67.42
64644;BME280;51056;50.330;7.914;2023-01-28T08:54:01;101866.97;;;2.36;66.10
64644;BME280;51056;50.330;7.914;2023-01-28T08:57:04;101875.66;;;2.56;67.46
64644;BME280;51056;50.330;7.914;2023-01-28T09:00:08;101876.53;;;2.72;67.92
64644;BME280;51056;50.330;7.914;2023-01-28T09:03:17;101875.69;;;2.89;67.92
64644;BME280;51056;50.330;7.914;2023-01-28T09:06:21;101882.59;;;2.97;69.10
64644;BME280;51056;50.330;7.914;2023-01-28T09:09:25;101883.47;;;3.04;67.77
64644;BME280;51056;50.330;7.914;2023-01-28T09:12:48;101888.63;;;3.07;67.56
64644;BME280;51056;50.330;7.914;2023-01-28T09:15:51;101877.44;;;3.10;67.42
64644;BME280;51056;50.330;7.914;2023-01-28T09:18:55;101888.63;;;3.06;66.91
64644;BME280;51056;50.330;7.914;2023-01-28T09:21:58;101882.59;;;2.97;66.03
64644;BME280;51056;50.330;7.914;2023-01-28T09:25:01;101886.03;;;3.01;65.10
64644;BME280;51056;50.330;7.914;2023-01-28T09:28:10;101892.88;;;2.64;65.02
64644;BME280;51056;50.330;7.914;2023-01-28T09:31:13;101892.91;;;2.85;66.40
64644;BME280;51056;50.330;7.914;2023-01-28T09:34:17;101894.63;;;2.80;66.40
64644;BME280;51056;50.330;7.914;2023-01-28T09:37:20;101903.28;;;2.94;66.53
64644;BME280;51056;50.330;7.914;2023-01-28T09:40:44;101895.44;;;2.64;66.08
64644;BME280;51056;50.330;7.914;2023-01-28T09:44:06;101892.81;;;2.48;65.21
64644;BME280;51056;50.330;7.914;2023-01-28T09:47:38;101907.53;;;2.75;66.54
64644;BME280;51056;50.330;7.914;2023-01-28T09:50:49;101904.97;;;2.83;67.11
64644;BME280;51056;50.330;7.914;2023-01-28T09:53:54;101908.41;;;2.93;66.50
64644;BME280;51056;50.330;7.914;2023-01-28T09:57:06;101909.22;;;2.61;66.04
64644;BME280;51056;50.330;7.914;2023-01-28T10:00:20;101913.59;;;2.88;65.53
64644;BME280;51056;50.330;7.914;2023-01-28T10:03:44;101913.59;;;2.97;65.67
64644;BME280;51056;50.330;7.914;2023-01-28T10:07:18;101926.53;;;3.07;65.90
64644;BME280;51056;50.330;7.914;2023-01-28T10:10:34;101928.25;;;3.08;66.59
64644;BME280;51056;50.330;7.914;2023-01-28T10:14:02;101929.13;;;3.07;66.06
64644;BME280;51056;50.330;7.914;2023-01-28T10:17:31;101931.72;;;3.07;65.63
64644;BME280;51056;50.330;7.914;2023-01-28T10:24:09;101935.13;;;2.89;65.86
64644;BME280;51056;50.330;7.914;2023-01-28T10:27:23;101923.09;;;3.00;65.09
64644;BME280;51056;50.330;7.914;2023-01-28T10:30:32;101917.06;;;3.10;66.25
64644;BME280;51056;50.330;7.914;2023-01-28T10:33:37;101930.84;;;3.01;65.63
64644;BME280;51056;50.330;7.914;2023-01-28T10:36:42;101933.44;;;3.14;65.48
64644;BME280;51056;50.330;7.914;2023-01-28T10:39:45;101939.47;;;3.13;66.41
64644;BME280;51056;50.330;7.914;2023-01-28T10:42:48;101932.53;;;2.96;66.25
64644;BME280;51056;50.330;7.914;2023-01-28T10:46:04;101932.53;;;3.02;66.38
64644;BME280;51056;50.330;7.914;2023-01-28T10:49:17;101937.72;;;3.06;65.42
64644;BME280;51056;50.330;7.914;2023-01-28T10:52:24;101939.47;;;3.11;65.94
64644;BME280;51056;50.330;7.914;2023-01-28T10:59:06;101933.44;;;3.08;65.86
64644;BME280;51056;50.330;7.914;2023-01-28T11:02:32;101937.69;;;2.90;65.27
64644;BME280;51056;50.330;7.914;2023-01-28T11:05:37;101933.38;;;2.89;65.48
64644;BME280;51056;50.330;7.914;2023-01-28T11:08:43;101927.31;;;2.73;65.99
64644;BME280;51056;50.330;7.914;2023-01-28T11:11:47;101935.13;;;2.96;64.81
64644;BME280;51056;50.330;7.914;2023-01-28T11:14:51;101936.00;;;3.01;64.69
64644;BME280;51056;50.330;7.914;2023-01-28T11:17:58;101928.25;;;3.09;63.07
64644;BME280;51056;50.330;7.914;2023-01-28T11:21:15;101930.84;;;3.17;63.11
64644;BME280;51056;50.330;7.914;2023-01-28T11:24:22;101930.81;;;3.06;61.78
64644;BME280;51056;50.330;7.914;2023-01-28T11:27:29;101933.41;;;2.91;61.53
64644;BME280;51056;50.330;7.914;2023-01-28T11:30:37;101911.88;;;3.12;62.15
64644;BME280;51056;50.330;7.914;2023-01-28T11:33:52;101920.53;;;3.20;63.21
64644;BME280;51056;50.330;7.914;2023-01-28T11:37:02;101936.03;;;3.29;63.86
64644;BME280;51056;50.330;7.914;2023-01-28T11:40:18;101927.41;;;3.21;62.38
64644;BME280;51056;50.330;7.914;2023-01-28T11:43:25;101927.38;;;2.99;62.78
64644;BME280;51056;50.330;7.914;2023-01-28T11:50:05;101914.47;;;3.15;63.76
64644;BME280;51056;50.330;7.914;2023-01-28T11:56:50;101908.44;;;3.40;63.55
64644;BME280;51056;50.330;7.914;2023-01-28T12:23:32;101878.25;;;3.64;61.62
64644;BME280;51056;50.330;7.914;2023-01-28T12:26:50;101873.94;;;3.63;61.65
64644;BME280;51056;50.330;7.914;2023-01-28T12:30:16;101875.63;;;3.67;59.84
64644;BME280;51056;50.330;7.914;2023-01-28T12:40:20;101872.22;;;3.68;60.86
64644;BME280;51056;50.330;7.914;2023-01-28T12:47:27;101874.00;;;3.23;58.95
64644;BME280;51056;50.330;7.914;2023-01-28T12:51:02;101880.88;;;3.29;58.90
64644;BME280;51056;50.330;7.914;2023-01-28T12:54:19;101865.34;;;3.48;59.94
64644;BME280;51056;50.330;7.914;2023-01-28T12:57:32;101871.34;;;3.63;59.85
64644;BME280;51056;50.330;7.914;2023-01-28T13:00:39;101875.69;;;3.61;59.42
64644;BME280;51056;50.330;7.914;2023-01-28T13:04:15;101872.22;;;3.71;58.92
64644;BME280;51056;50.330;7.914;2023-01-28T13:07:34;101877.41;;;3.43;59.96
64644;BME280;51056;50.330;7.914;2023-01-28T13:10:43;101875.69;;;3.61;58.72
64644;BME280;51056;50.330;7.914;2023-01-28T13:13:48;101887.72;;;3.71;59.37
64644;BME280;51056;50.330;7.914;2023-01-28T13:16:51;101882.56;;;3.71;60.64
64644;BME280;51056;50.330;7.914;2023-01-28T13:19:58;101879.97;;;3.63;60.69
64644;BME280;51056;50.330;7.914;2023-01-28T13:23:21;101875.69;;;3.52;60.86
64644;BME280;51056;50.330;7.914;2023-01-28T13:26:27;101870.50;;;3.58;58.98
64644;BME280;51056;50.330;7.914;2023-01-28T13:29:34;101879.97;;;3.63;61.55
64644;BME280;51056;50.330;7.914;2023-01-28T13:32:37;101889.44;;;3.77;59.38
64644;BME280;51056;50.330;7.914;2023-01-28T13:35:52;101884.28;;;3.69;59.46
64644;BME280;51056;50.330;7.914;2023-01-28T13:39:03;101881.72;;;3.61;59.35
64644;BME280;51056;50.330;7.914;2023-01-28T13:42:19;101878.22;;;3.75;59.80
64644;BME280;51056;50.330;7.914;2023-01-28T13:45:24;101879.94;;;3.76;59.01
64644;BME280;51056;50.330;7.914;2023-01-28T13:48:49;101880.84;;;3.64;60.18
64644;BME280;51056;50.330;7.914;2023-01-28T13:52:31;101888.56;;;3.81;60.48
64644;BME280;51056;50.330;7.914;2023-01-28T13:55:38;101888.53;;;3.82;58.56
64644;BME280;51056;50.330;7.914;2023-01-28T14:06:17;101880.78;;;3.76;58.58
64644;BME280;51056;50.330;7.914;2023-01-28T14:09:48;101884.28;;;3.63;59.30
64644;BME280;51056;50.330;7.914;2023-01-28T14:19:36;101884.28;;;3.66;58.83
64644;BME280;51056;50.330;7.914;2023-01-28T14:22:40;101891.19;;;3.58;59.41
64644;BME280;51056;50.330;7.914;2023-01-28T14:26:02;101885.16;;;3.19;59.79
64644;BME280;51056;50.330;7.914;2023-01-28T14:32:46;101871.38;;;3.44;59.12
64644;BME280;51056;50.330;7.914;2023-01-28T14:35:51;101868.78;;;3.54;59.47
64644;BME280;51056;50.330;7.914;2023-01-28T14:39:26;101874.81;;;3.65;59.89
64644;BME280;51056;50.330;7.914;2023-01-28T14:42:55;101873.91;;;3.69;58.88
64644;BME280;51056;50.330;7.914;2023-01-28T14:46:44;101860.09;;;3.87;58.80
64644;BME280;51056;50.330;7.914;2023-01-28T15:03:53;101879.09;;;3.69;58.94
64644;BME280;51056;50.330;7.914;2023-01-28T15:07:21;101867.03;;;3.62;58.36
64644;BME280;51056;50.330;7.914;2023-01-28T15:10:54;101858.41;;;3.63;59.15
64644;BME280;51056;50.330;7.914;2023-01-28T15:14:12;101863.59;;;3.57;58.88
64644;BME280;51056;50.330;7.914;2023-01-28T15:17:24;101851.53;;;3.57;58.28
64644;BME280;51056;50.330;7.914;2023-01-28T15:20:30;101848.06;;;3.66;58.77
64644;BME280;51056;50.330;7.914;2023-01-28T15:23:39;101848.88;;;3.85;58.44
64644;BME280;51056;50.330;7.914;2023-01-28T15:27:14;101862.72;;;3.65;58.44
64644;BME280;51056;50.330;7.914;2023-01-28T15:30:28;101861.91;;;3.46;58.52
64644;BME280;51056;50.330;7.914;2023-01-28T15:33:33;101856.72;;;3.40;58.03
64644;BME280;51056;50.330;7.914;2023-01-28T15:36:36;101878.28;;;3.33;60.77
64644;BME280;51056;50.330;7.914;2023-01-28T15:39:41;101883.47;;;2.87;61.72
64644;BME280;51056;50.330;7.914;2023-01-28T15:42:46;101898.03;;;2.56;63.78
64644;BME280;51056;50.330;7.914;2023-01-28T15:45:52;101908.28;;;2.39;65.40
64644;BME280;51056;50.330;7.914;2023-01-28T15:49:02;101912.56;;;2.34;66.95
64644;BME280;51056;50.330;7.914;2023-01-28T15:52:09;101903.09;;;2.36;67.47
64644;BME280;51056;50.330;7.914;2023-01-28T15:55:43;101904.03;;;2.58;68.49
64644;BME280;51056;50.330;7.914;2023-01-28T15:58:47;101904.03;;;2.56;67.07
64644;BME280;51056;50.330;7.914;2023-01-28T16:02:17;101892.84;;;2.61;66.82
64644;BME280;51056;50.330;7.914;2023-01-28T16:05:41;101897.94;;;2.36;66.65
64644;BME280;51056;50.330;7.914;2023-01-28T16:08:52;101906.53;;;2.35;66.95
64644;BME280;51056;50.330;7.914;2023-01-28T16:15:14;101918.66;;;2.51;67.42
64644;BME280;51056;50.330;7.914;2023-01-28T16:18:42;101925.56;;;2.54;67.48
64644;BME280;51056;50.330;7.914;2023-01-28T16:21:49;101932.44;;;2.58;67.43
64644;BME280;51056;50.330;7.914;2023-01-28T16:24:55;101922.09;;;2.50;66.95
64644;BME280;51056;50.330;7.914;2023-01-28T16:28:18;101928.13;;;2.51;67.85
64644;BME280;51056;50.330;7.914;2023-01-28T16:31:24;101925.53;;;2.48;67.18
64644;BME280;51056;50.330;7.914;2023-01-28T16:34:28;101916.91;;;2.44;67.94
64644;BME280;51056;50.330;7.914;2023-01-28T16:37:33;101912.59;;;2.37;68.98
64644;BME280;51056;50.330;7.914;2023-01-28T16:40:37;101915.19;;;2.37;68.88
64644;BME280;51056;50.330;7.914;2023-01-28T16:43:40;101907.38;;;2.25;69.22
64644;BME280;51056;50.330;7.914;2023-01-28T16:46:44;101903.91;;;2.18;69.39
64644;BME280;51056;50.330;7.914;2023-01-28T16:49:48;101922.78;;;2.13;70.15
64644;BME280;51056;50.330;7.914;2023-01-28T16:52:53;101918.50;;;2.12;69.98
64644;BME280;51056;50.330;7.914;2023-01-28T16:55:56;101911.53;;;1.95;70.44
64644;BME280;51056;50.330;7.914;2023-01-28T16:59:00;101912.34;;;1.88;70.56
64644;BME280;51056;50.330;7.914;2023-01-28T17:02:03;101918.25;;;1.69;69.36
64644;BME280;51056;50.330;7.914;2023-01-28T17:05:07;101914.78;;;1.63;70.00
64644;BME280;51056;50.330;7.914;2023-01-28T17:08:13;101920.69;;;1.49;70.91
64644;BME280;51056;50.330;7.914;2023-01-28T17:11:16;101928.38;;;1.41;71.31
64644;BME280;51056;50.330;7.914;2023-01-28T17:14:19;101911.16;;;1.40;71.58
64644;BME280;51056;50.330;7.914;2023-01-28T17:17:23;101929.19;;;1.35;71.40
64644;BME280;51056;50.330;7.914;2023-01-28T17:20:26;101939.31;;;1.17;71.59
64644;BME280;51056;50.330;7.914;2023-01-28T17:23:30;101941.97;;;1.25;71.91
64644;BME280;51056;50.330;7.914;2023-01-28T17:26:35;101944.50;;;1.19;72.03
64644;BME280;51056;50.330;7.914;2023-01-28T17:29:39;101961.69;;;1.24;72.23
64644;BME280;51056;50.330;7.914;2023-01-28T17:32:43;101975.50;;;1.29;72.19
64644;BME280;51056;50.330;7.914;2023-01-28T17:35:47;101988.38;;;1.28;71.52
64644;BME280;51056;50.330;7.914;2023-01-28T17:38:50;101985.00;;;1.35;72.30
64644;BME280;51056;50.330;7.914;2023-01-28T17:41:54;101981.56;;;1.36;72.33
64644;BME280;51056;50.330;7.914;2023-01-28T17:44:58;102001.31;;;1.34;72.39
64644;BME280;51056;50.330;7.914;2023-01-28T17:48:06;102017.63;;;1.33;72.53
64644;BME280;51056;50.330;7.914;2023-01-28T17:51:11;102027.94;;;1.33;73.08
64644;BME280;51056;50.330;7.914;2023-01-28T17:54:15;102037.38;;;1.31;73.07
64644;BME280;51056;50.330;7.914;2023-01-28T17:57:19;102043.38;;;1.28;73.07
64644;BME280;51056;50.330;7.914;2023-01-28T18:00:22;102047.72;;;1.37;73.46
64644;BME280;51056;50.330;7.914;2023-01-28T18:03:28;102049.50;;;1.41;73.44
64644;BME280;51056;50.330;7.914;2023-01-28T18:06:33;102046.09;;;1.44;72.93
64644;BME280;51056;50.330;7.914;2023-01-28T18:09:42;102059.84;;;1.44;72.49
64644;BME280;51056;50.330;7.914;2023-01-28T18:12:47;102055.56;;;1.46;72.94
64644;BME280;51056;50.330;7.914;2023-01-28T18:15:51;102049.44;;;1.35;73.67
64644;BME280;51056;50.330;7.914;2023-01-28T18:18:54;102046.97;;;1.44;73.39
64644;BME280;51056;50.330;7.914;2023-01-28T18:21:58;102056.41;;;1.47;72.89
64644;BME280;51056;50.330;7.914;2023-01-28T18:25:01;102052.16;;;1.47;73.32
64644;BME280;51056;50.330;7.914;2023-01-28T18:28:05;102028.16;;;1.54;73.49
64644;BME280;51056;50.330;7.914;2023-01-28T18:31:11;102034.00;;;1.39;73.82
64644;BME280;51056;50.330;7.914;2023-01-28T18:34:16;102035.84;;;1.51;73.09
64644;BME280;51056;50.330;7.914;2023-01-28T18:37:22;102047.09;;;1.56;72.17
64644;BME280;51056;50.330;7.914;2023-01-28T18:40:28;102042.84;;;1.63;72.81